sensor_id;sensor_type;location;lat;lon;timestamp;P1;durP1;ratioP1;P2;durP2;ratioP2
71125;SDS011;58785;55.566;38.058;2022-09-12T00:01:56;19.05;;;8.02;;
71125;SDS011;58785;55.566;38.058;2022-09-12T00:04:21;19.10;;;7.95;;
71125;SDS011;58785;55.566;38.058;2022-09-12T00:06:47;18.30;;;7.50;;
71125;SDS011;58785;55.566;38.058;2022-09-12T00:09:13;16.23;;;7.05;;
71125;SDS011;58785;55.566;38.058;2022-09-12T00:11:40;17.50;;;6.90;;
71125;SDS011;58785;55.566;38.058;2022-09-12T00:14:08;18.67;;;6.93;;
71125;SDS011;58785;55.566;38.058;2022-09-12T00:16:35;18.52;;;7.50;;
71125;SDS011;58785;55.566;38.058;2022-09-12T00:19:02;16.95;;;7.03;;
71125;SDS011;58785;55.566;38.058;2022-09-12T00:21:28;18.30;;;7.72;;
71125;SDS011;58785;55.566;38.058;2022-09-12T00:23:56;18.37;;;7.53;;
71125;SDS011;58785;55.566;38.058;2022-09-12T00:26:22;18.00;;;8.50;;
71125;SDS011;58785;55.566;38.058;2022-09-12T00:28:48;18.50;;;7.72;;
71125;SDS011;58785;55.566;38.058;2022-09-12T00:31:15;19.00;;;7.83;;
71125;SDS011;58785;55.566;38.058;2022-09-12T00:33:43;17.45;;;7.70;;
71125;SDS011;58785;55.566;38.058;2022-09-12T00:36:10;20.20;;;7.97;;
71125;SDS011;58785;55.566;38.058;2022-09-12T00:38:40;16.50;;;7.90;;
71125;SDS011;58785;55.566;38.058;2022-09-12T00:41:07;16.63;;;8.30;;
71125;SDS011;58785;55.566;38.058;2022-09-12T00:43:44;19.05;;;8.52;;
71125;SDS011;58785;55.566;38.058;2022-09-12T00:46:19;27.63;;;11.60;;
71125;SDS011;58785;55.566;38.058;2022-09-12T00:48:57;24.42;;;10.77;;
71125;SDS011;58785;55.566;38.058;2022-09-12T00:51:26;27.67;;;12.10;;
71125;SDS011;58785;55.566;38.058;2022-09-12T00:53:54;27.50;;;12.52;;
71125;SDS011;58785;55.566;38.058;2022-09-12T00:56:21;22.38;;;12.25;;
71125;SDS011;58785;55.566;38.058;2022-09-12T01:01:39;21.95;;;9.70;;
71125;SDS011;58785;55.566;38.058;2022-09-12T01:04:08;20.97;;;9.63;;
71125;SDS011;58785;55.566;38.058;2022-09-12T01:06:36;20.00;;;9.55;;
71125;SDS011;58785;55.566;38.058;2022-09-12T01:09:04;21.27;;;9.55;;
71125;SDS011;58785;55.566;38.058;2022-09-12T01:11:31;18.13;;;9.27;;
71125;SDS011;58785;55.566;38.058;2022-09-12T01:14:02;18.58;;;8.60;;
71125;SDS011;58785;55.566;38.058;2022-09-12T01:16:28;19.20;;;7.70;;
71125;SDS011;58785;55.566;38.058;2022-09-12T01:19:00;18.57;;;7.87;;
71125;SDS011;58785;55.566;38.058;2022-09-12T01:22:17;17.20;;;6.73;;
71125;SDS011;58785;55.566;38.058;2022-09-12T01:25:14;18.23;;;7.32;;
71125;SDS011;58785;55.566;38.058;2022-09-12T01:36:57;16.83;;;8.00;;
71125;SDS011;58785;55.566;38.058;2022-09-12T01:40:08;14.27;;;6.65;;
71125;SDS011;58785;55.566;38.058;2022-09-12T01:45:17;17.88;;;7.10;;
71125;SDS011;58785;55.566;38.058;2022-09-12T01:51:11;14.60;;;7.00;;
71125;SDS011;58785;55.566;38.058;2022-09-12T01:53:45;15.63;;;7.28;;
71125;SDS011;58785;55.566;38.058;2022-09-12T01:56:20;15.20;;;7.63;;
71125;SDS011;58785;55.566;38.058;2022-09-12T01:58:51;15.50;;;7.07;;
71125;SDS011;58785;55.566;38.058;2022-09-12T02:01:38;19.45;;;7.93;;
71125;SDS011;58785;55.566;38.058;2022-09-12T02:04:43;25.20;;;8.00;;
71125;SDS011;58785;55.566;38.058;2022-09-12T02:07:10;16.90;;;7.63;;
71125;SDS011;58785;55.566;38.058;2022-09-12T02:09:57;19.92;;;7.28;;
71125;SDS011;58785;55.566;38.058;2022-09-12T02:12:50;13.95;;;6.57;;
71125;SDS011;58785;55.566;38.058;2022-09-12T02:15:21;14.77;;;6.20;;
71125;SDS011;58785;55.566;38.058;2022-09-12T02:17:57;13.27;;;6.17;;
71125;SDS011;58785;55.566;38.058;2022-09-12T02:20:27;15.63;;;6.55;;
71125;SDS011;58785;55.566;38.058;2022-09-12T02:22:54;15.02;;;6.50;;
71125;SDS011;58785;55.566;38.058;2022-09-12T02:25:21;14.65;;;6.70;;
71125;SDS011;58785;55.566;38.058;2022-09-12T02:30:18;15.87;;;7.07;;
71125;SDS011;58785;55.566;38.058;2022-09-12T02:32:50;14.80;;;7.15;;
71125;SDS011;58785;55.566;38.058;2022-09-12T02:38:49;14.73;;;7.35;;
71125;SDS011;58785;55.566;38.058;2022-09-12T02:41:16;20.20;;;6.63;;
71125;SDS011;58785;55.566;38.058;2022-09-12T02:43:44;16.33;;;6.53;;
71125;SDS011;58785;55.566;38.058;2022-09-12T02:46:32;20.17;;;7.47;;
71125;SDS011;58785;55.566;38.058;2022-09-12T02:49:06;15.82;;;7.22;;
71125;SDS011;58785;55.566;38.058;2022-09-12T02:51:32;14.03;;;6.60;;
71125;SDS011;58785;55.566;38.058;2022-09-12T02:53:58;15.87;;;6.80;;
71125;SDS011;58785;55.566;38.058;2022-09-12T02:56:26;14.65;;;6.65;;
71125;SDS011;58785;55.566;38.058;2022-09-12T02:58:53;13.20;;;6.97;;
71125;SDS011;58785;55.566;38.058;2022-09-12T03:15:06;18.02;;;7.75;;
71125;SDS011;58785;55.566;38.058;2022-09-12T03:23:19;15.57;;;7.17;;
71125;SDS011;58785;55.566;38.058;2022-09-12T03:26:00;17.42;;;7.25;;
71125;SDS011;58785;55.566;38.058;2022-09-12T03:28:31;16.92;;;7.18;;
71125;SDS011;58785;55.566;38.058;2022-09-12T03:30:59;14.40;;;6.63;;
71125;SDS011;58785;55.566;38.058;2022-09-12T03:33:35;15.27;;;6.70;;
71125;SDS011;58785;55.566;38.058;2022-09-12T03:36:01;14.23;;;7.17;;
71125;SDS011;58785;55.566;38.058;2022-09-12T03:38:27;16.20;;;6.70;;
71125;SDS011;58785;55.566;38.058;2022-09-12T03:40:52;15.97;;;6.53;;
71125;SDS011;58785;55.566;38.058;2022-09-12T03:43:18;14.48;;;6.57;;
71125;SDS011;58785;55.566;38.058;2022-09-12T03:45:43;15.70;;;6.23;;
71125;SDS011;58785;55.566;38.058;2022-09-12T03:48:09;15.10;;;6.40;;
71125;SDS011;58785;55.566;38.058;2022-09-12T03:50:34;15.40;;;6.60;;
71125;SDS011;58785;55.566;38.058;2022-09-12T03:53:01;14.00;;;6.07;;
71125;SDS011;58785;55.566;38.058;2022-09-12T03:55:27;17.10;;;6.97;;
71125;SDS011;58785;55.566;38.058;2022-09-12T03:57:53;13.02;;;6.40;;
71125;SDS011;58785;55.566;38.058;2022-09-12T04:00:19;16.10;;;6.88;;
71125;SDS011;58785;55.566;38.058;2022-09-12T04:02:45;13.17;;;5.80;;
71125;SDS011;58785;55.566;38.058;2022-09-12T04:05:10;13.70;;;6.38;;
71125;SDS011;58785;55.566;38.058;2022-09-12T04:07:36;16.50;;;6.47;;
71125;SDS011;58785;55.566;38.058;2022-09-12T04:10:02;14.57;;;6.60;;
71125;SDS011;58785;55.566;38.058;2022-09-12T04:12:28;14.73;;;6.65;;
71125;SDS011;58785;55.566;38.058;2022-09-12T04:14:54;14.30;;;6.93;;
71125;SDS011;58785;55.566;38.058;2022-09-12T04:17:20;12.43;;;6.20;;
71125;SDS011;58785;55.566;38.058;2022-09-12T04:19:45;13.90;;;6.03;;
71125;SDS011;58785;55.566;38.058;2022-09-12T04:22:11;12.30;;;5.90;;
71125;SDS011;58785;55.566;38.058;2022-09-12T04:24:37;14.07;;;6.35;;
71125;SDS011;58785;55.566;38.058;2022-09-12T04:27:02;14.80;;;6.03;;
71125;SDS011;58785;55.566;38.058;2022-09-12T04:29:28;12.95;;;5.93;;
71125;SDS011;58785;55.566;38.058;2022-09-12T04:31:55;16.33;;;6.30;;
71125;SDS011;58785;55.566;38.058;2022-09-12T04:34:21;15.13;;;5.50;;
71125;SDS011;58785;55.566;38.058;2022-09-12T04:36:47;14.95;;;6.40;;
71125;SDS011;58785;55.566;38.058;2022-09-12T04:39:13;15.37;;;6.03;;
71125;SDS011;58785;55.566;38.058;2022-09-12T04:41:39;13.20;;;6.15;;
71125;SDS011;58785;55.566;38.058;2022-09-12T04:44:09;14.27;;;5.60;;
71125;SDS011;58785;55.566;38.058;2022-09-12T04:46:41;11.55;;;5.53;;
71125;SDS011;58785;55.566;38.058;2022-09-12T04:49:09;12.52;;;6.07;;
71125;SDS011;58785;55.566;38.058;2022-09-12T04:51:36;10.67;;;5.07;;
71125;SDS011;58785;55.566;38.058;2022-09-12T04:54:06;12.73;;;5.13;;
71125;SDS011;58785;55.566;38.058;2022-09-12T04:56:38;13.88;;;6.20;;
71125;SDS011;58785;55.566;38.058;2022-09-12T04:59:09;14.48;;;6.07;;
71125;SDS011;58785;55.566;38.058;2022-09-12T05:01:35;13.57;;;5.90;;
71125;SDS011;58785;55.566;38.058;2022-09-12T05:04:01;11.93;;;5.47;;
71125;SDS011;58785;55.566;38.058;2022-09-12T05:06:32;12.35;;;6.15;;
71125;SDS011;58785;55.566;38.058;2022-09-12T05:08:59;12.63;;;5.47;;
71125;SDS011;58785;55.566;38.058;2022-09-12T05:11:33;14.60;;;6.00;;
71125;SDS011;58785;55.566;38.058;2022-09-12T05:14:00;15.63;;;5.63;;
71125;SDS011;58785;55.566;38.058;2022-09-12T05:16:27;12.97;;;5.60;;
71125;SDS011;58785;55.566;38.058;2022-09-12T05:18:56;11.15;;;5.63;;
71125;SDS011;58785;55.566;38.058;2022-09-12T05:21:23;12.50;;;5.35;;
71125;SDS011;58785;55.566;38.058;2022-09-12T05:23:50;13.23;;;6.32;;
71125;SDS011;58785;55.566;38.058;2022-09-12T05:26:17;12.13;;;6.05;;
71125;SDS011;58785;55.566;38.058;2022-09-12T05:28:44;14.33;;;6.43;;
71125;SDS011;58785;55.566;38.058;2022-09-12T05:33:41;14.15;;;5.28;;
71125;SDS011;58785;55.566;38.058;2022-09-12T05:36:12;11.15;;;5.55;;
71125;SDS011;58785;55.566;38.058;2022-09-12T05:38:40;14.52;;;5.47;;
71125;SDS011;58785;55.566;38.058;2022-09-12T05:41:07;12.93;;;5.87;;
71125;SDS011;58785;55.566;38.058;2022-09-12T05:43:36;11.88;;;5.43;;
71125;SDS011;58785;55.566;38.058;2022-09-12T05:46:03;13.82;;;5.93;;
71125;SDS011;58785;55.566;38.058;2022-09-12T05:48:33;12.53;;;5.23;;
71125;SDS011;58785;55.566;38.058;2022-09-12T05:51:03;12.60;;;4.75;;
71125;SDS011;58785;55.566;38.058;2022-09-12T05:53:31;10.70;;;5.97;;
71125;SDS011;58785;55.566;38.058;2022-09-12T05:56:13;11.23;;;4.70;;
71125;SDS011;58785;55.566;38.058;2022-09-12T05:58:42;12.33;;;4.33;;
71125;SDS011;58785;55.566;38.058;2022-09-12T06:01:10;10.73;;;4.40;;
71125;SDS011;58785;55.566;38.058;2022-09-12T06:03:39;9.65;;;4.20;;
71125;SDS011;58785;55.566;38.058;2022-09-12T06:06:07;9.40;;;3.53;;
71125;SDS011;58785;55.566;38.058;2022-09-12T06:08:34;8.65;;;3.92;;
71125;SDS011;58785;55.566;38.058;2022-09-12T06:11:01;9.13;;;4.00;;
71125;SDS011;58785;55.566;38.058;2022-09-12T06:13:27;9.32;;;4.10;;
71125;SDS011;58785;55.566;38.058;2022-09-12T06:16:08;10.23;;;4.20;;
71125;SDS011;58785;55.566;38.058;2022-09-12T06:18:36;10.20;;;3.78;;
71125;SDS011;58785;55.566;38.058;2022-09-12T06:23:28;15.83;;;5.93;;
71125;SDS011;58785;55.566;38.058;2022-09-12T06:25:54;16.48;;;6.45;;
71125;SDS011;58785;55.566;38.058;2022-09-12T06:28:20;11.40;;;5.57;;
71125;SDS011;58785;55.566;38.058;2022-09-12T06:30:46;11.57;;;4.97;;
71125;SDS011;58785;55.566;38.058;2022-09-12T06:33:13;12.55;;;5.40;;
71125;SDS011;58785;55.566;38.058;2022-09-12T06:35:39;12.32;;;5.63;;
71125;SDS011;58785;55.566;38.058;2022-09-12T06:38:05;10.97;;;4.90;;
71125;SDS011;58785;55.566;38.058;2022-09-12T06:40:32;15.00;;;5.18;;
71125;SDS011;58785;55.566;38.058;2022-09-12T06:42:58;11.10;;;4.72;;
71125;SDS011;58785;55.566;38.058;2022-09-12T06:45:23;8.93;;;4.27;;
71125;SDS011;58785;55.566;38.058;2022-09-12T06:47:50;11.47;;;4.50;;
71125;SDS011;58785;55.566;38.058;2022-09-12T06:50:16;9.18;;;4.03;;
71125;SDS011;58785;55.566;38.058;2022-09-12T06:52:41;11.43;;;4.50;;
71125;SDS011;58785;55.566;38.058;2022-09-12T06:55:08;10.93;;;3.97;;
71125;SDS011;58785;55.566;38.058;2022-09-12T06:57:36;10.90;;;4.25;;
71125;SDS011;58785;55.566;38.058;2022-09-12T07:00:06;8.55;;;4.13;;
71125;SDS011;58785;55.566;38.058;2022-09-12T07:02:32;10.32;;;4.38;;
71125;SDS011;58785;55.566;38.058;2022-09-12T07:04:58;11.13;;;4.47;;
71125;SDS011;58785;55.566;38.058;2022-09-12T07:07:23;9.25;;;4.45;;
71125;SDS011;58785;55.566;38.058;2022-09-12T07:09:49;10.70;;;4.33;;
71125;SDS011;58785;55.566;38.058;2022-09-12T07:12:14;11.30;;;4.70;;
71125;SDS011;58785;55.566;38.058;2022-09-12T07:14:40;8.85;;;4.60;;
71125;SDS011;58785;55.566;38.058;2022-09-12T07:17:06;10.03;;;4.70;;
71125;SDS011;58785;55.566;38.058;2022-09-12T07:19:32;9.77;;;4.53;;
71125;SDS011;58785;55.566;38.058;2022-09-12T07:21:59;9.70;;;4.43;;
71125;SDS011;58785;55.566;38.058;2022-09-12T07:24:25;11.52;;;4.60;;
71125;SDS011;58785;55.566;38.058;2022-09-12T07:26:50;11.33;;;4.63;;
71125;SDS011;58785;55.566;38.058;2022-09-12T07:29:16;13.63;;;5.28;;
71125;SDS011;58785;55.566;38.058;2022-09-12T07:31:42;10.20;;;4.47;;
71125;SDS011;58785;55.566;38.058;2022-09-12T07:34:11;12.35;;;5.20;;
71125;SDS011;58785;55.566;38.058;2022-09-12T07:36:37;12.38;;;4.82;;
71125;SDS011;58785;55.566;38.058;2022-09-12T07:39:03;10.82;;;4.63;;
71125;SDS011;58785;55.566;38.058;2022-09-12T07:41:29;14.17;;;4.90;;
71125;SDS011;58785;55.566;38.058;2022-09-12T07:43:58;13.25;;;5.60;;
71125;SDS011;58785;55.566;38.058;2022-09-12T07:46:26;11.23;;;5.45;;
71125;SDS011;58785;55.566;38.058;2022-09-12T07:48:54;19.15;;;6.35;;
71125;SDS011;58785;55.566;38.058;2022-09-12T07:51:21;13.68;;;6.05;;
71125;SDS011;58785;55.566;38.058;2022-09-12T07:53:48;13.77;;;6.57;;
71125;SDS011;58785;55.566;38.058;2022-09-12T07:56:14;16.42;;;7.80;;
71125;SDS011;58785;55.566;38.058;2022-09-12T07:58:41;15.90;;;6.35;;
71125;SDS011;58785;55.566;38.058;2022-09-12T08:01:08;16.00;;;7.00;;
71125;SDS011;58785;55.566;38.058;2022-09-12T08:03:37;15.90;;;7.68;;
71125;SDS011;58785;55.566;38.058;2022-09-12T08:06:08;16.23;;;7.63;;
71125;SDS011;58785;55.566;38.058;2022-09-12T08:08:35;15.60;;;7.15;;
71125;SDS011;58785;55.566;38.058;2022-09-12T08:11:03;18.83;;;7.85;;
71125;SDS011;58785;55.566;38.058;2022-09-12T08:13:37;17.73;;;7.93;;
71125;SDS011;58785;55.566;38.058;2022-09-12T08:16:06;18.70;;;8.82;;
71125;SDS011;58785;55.566;38.058;2022-09-12T08:18:36;17.97;;;9.10;;
71125;SDS011;58785;55.566;38.058;2022-09-12T08:21:03;21.23;;;9.57;;
71125;SDS011;58785;55.566;38.058;2022-09-12T08:23:31;19.85;;;9.07;;
71125;SDS011;58785;55.566;38.058;2022-09-12T08:25:57;20.08;;;9.40;;
71125;SDS011;58785;55.566;38.058;2022-09-12T08:28:25;20.40;;;9.00;;
71125;SDS011;58785;55.566;38.058;2022-09-12T08:30:52;22.00;;;9.85;;
71125;SDS011;58785;55.566;38.058;2022-09-12T08:33:18;24.55;;;10.35;;
71125;SDS011;58785;55.566;38.058;2022-09-12T08:35:45;22.67;;;10.50;;
71125;SDS011;58785;55.566;38.058;2022-09-12T08:38:11;23.30;;;10.05;;
71125;SDS011;58785;55.566;38.058;2022-09-12T08:40:41;23.50;;;10.43;;
71125;SDS011;58785;55.566;38.058;2022-09-12T08:43:41;22.50;;;10.18;;
71125;SDS011;58785;55.566;38.058;2022-09-12T08:49:04;23.77;;;10.40;;
71125;SDS011;58785;55.566;38.058;2022-09-12T08:51:36;24.33;;;11.90;;
71125;SDS011;58785;55.566;38.058;2022-09-12T08:54:03;26.67;;;10.80;;
71125;SDS011;58785;55.566;38.058;2022-09-12T08:56:44;24.52;;;10.82;;
71125;SDS011;58785;55.566;38.058;2022-09-12T08:59:11;21.42;;;11.00;;
71125;SDS011;58785;55.566;38.058;2022-09-12T09:01:42;24.95;;;11.60;;
71125;SDS011;58785;55.566;38.058;2022-09-12T09:04:15;26.67;;;11.97;;
71125;SDS011;58785;55.566;38.058;2022-09-12T09:18:56;30.30;;;12.90;;
71125;SDS011;58785;55.566;38.058;2022-09-12T09:21:30;30.20;;;13.60;;
71125;SDS011;58785;55.566;38.058;2022-09-12T09:24:05;25.58;;;11.82;;
71125;SDS011;58785;55.566;38.058;2022-09-12T09:29:16;32.90;;;13.13;;
71125;SDS011;58785;55.566;38.058;2022-09-12T09:31:47;27.10;;;11.30;;
71125;SDS011;58785;55.566;38.058;2022-09-12T09:34:20;26.45;;;12.13;;
71125;SDS011;58785;55.566;38.058;2022-09-12T09:44:55;27.23;;;13.53;;
71125;SDS011;58785;55.566;38.058;2022-09-12T09:47:24;28.13;;;13.10;;
71125;SDS011;58785;55.566;38.058;2022-09-12T09:49:50;31.35;;;13.70;;
71125;SDS011;58785;55.566;38.058;2022-09-12T09:52:16;31.13;;;13.33;;
71125;SDS011;58785;55.566;38.058;2022-09-12T09:54:53;29.50;;;13.68;;
71125;SDS011;58785;55.566;38.058;2022-09-12T10:02:58;31.45;;;13.70;;
71125;SDS011;58785;55.566;38.058;2022-09-12T10:05:44;27.97;;;13.07;;
71125;SDS011;58785;55.566;38.058;2022-09-12T10:13:42;29.25;;;12.82;;
71125;SDS011;58785;55.566;38.058;2022-09-12T10:16:19;28.50;;;11.43;;
71125;SDS011;58785;55.566;38.058;2022-09-12T10:18:46;27.37;;;13.03;;
71125;SDS011;58785;55.566;38.058;2022-09-12T10:21:17;25.90;;;12.40;;
71125;SDS011;58785;55.566;38.058;2022-09-12T10:23:50;25.48;;;11.48;;
71125;SDS011;58785;55.566;38.058;2022-09-12T10:26:24;30.67;;;12.05;;
71125;SDS011;58785;55.566;38.058;2022-09-12T10:28:52;28.45;;;12.23;;
71125;SDS011;58785;55.566;38.058;2022-09-12T10:31:24;27.20;;;12.57;;
71125;SDS011;58785;55.566;38.058;2022-09-12T10:34:26;27.83;;;13.27;;
71125;SDS011;58785;55.566;38.058;2022-09-12T10:36:57;28.42;;;11.70;;
71125;SDS011;58785;55.566;38.058;2022-09-12T10:39:27;23.27;;;10.18;;
71125;SDS011;58785;55.566;38.058;2022-09-12T10:41:53;27.60;;;12.23;;
71125;SDS011;58785;55.566;38.058;2022-09-12T10:44:23;25.47;;;11.53;;
71125;SDS011;58785;55.566;38.058;2022-09-12T10:46:57;26.75;;;12.52;;
71125;SDS011;58785;55.566;38.058;2022-09-12T10:49:32;26.23;;;11.85;;
71125;SDS011;58785;55.566;38.058;2022-09-12T10:52:23;28.75;;;11.73;;
71125;SDS011;58785;55.566;38.058;2022-09-12T10:54:49;28.95;;;12.35;;
71125;SDS011;58785;55.566;38.058;2022-09-12T11:05:13;21.80;;;9.73;;
71125;SDS011;58785;55.566;38.058;2022-09-12T11:29:45;24.33;;;11.43;;
71125;SDS011;58785;55.566;38.058;2022-09-12T11:35:17;22.98;;;10.65;;
71125;SDS011;58785;55.566;38.058;2022-09-12T11:41:00;26.38;;;10.10;;
71125;SDS011;58785;55.566;38.058;2022-09-12T11:48:56;21.98;;;10.35;;
71125;SDS011;58785;55.566;38.058;2022-09-12T11:51:32;20.52;;;8.75;;
71125;SDS011;58785;55.566;38.058;2022-09-12T11:54:47;20.25;;;9.27;;
71125;SDS011;58785;55.566;38.058;2022-09-12T11:56:59;23.53;;;9.10;;
71125;SDS011;58785;55.566;38.058;2022-09-12T11:59:42;22.10;;;8.40;;
71125;SDS011;58785;55.566;38.058;2022-09-12T12:02:24;19.10;;;7.50;;
71125;SDS011;58785;55.566;38.058;2022-09-12T12:04:58;18.27;;;8.43;;
71125;SDS011;58785;55.566;38.058;2022-09-12T12:07:26;18.42;;;7.82;;
71125;SDS011;58785;55.566;38.058;2022-09-12T12:10:02;17.23;;;7.70;;
71125;SDS011;58785;55.566;38.058;2022-09-12T12:12:29;19.23;;;8.27;;
71125;SDS011;58785;55.566;38.058;2022-09-12T12:14:55;18.02;;;7.10;;
71125;SDS011;58785;55.566;38.058;2022-09-12T12:17:23;15.88;;;7.28;;
71125;SDS011;58785;55.566;38.058;2022-09-12T12:19:58;16.73;;;6.38;;
71125;SDS011;58785;55.566;38.058;2022-09-12T12:22:26;15.27;;;7.20;;
71125;SDS011;58785;55.566;38.058;2022-09-12T12:25:01;18.63;;;7.32;;
71125;SDS011;58785;55.566;38.058;2022-09-12T12:35:40;14.07;;;6.00;;
71125;SDS011;58785;55.566;38.058;2022-09-12T12:40:52;15.75;;;5.13;;
71125;SDS011;58785;55.566;38.058;2022-09-12T12:43:27;13.68;;;5.72;;
71125;SDS011;58785;55.566;38.058;2022-09-12T12:46:03;12.80;;;5.65;;
71125;SDS011;58785;55.566;38.058;2022-09-12T12:48:32;12.93;;;5.63;;
71125;SDS011;58785;55.566;38.058;2022-09-12T12:53:48;11.68;;;5.25;;
71125;SDS011;58785;55.566;38.058;2022-09-12T12:56:29;13.85;;;4.80;;
71125;SDS011;58785;55.566;38.058;2022-09-12T12:58:58;11.35;;;4.90;;
71125;SDS011;58785;55.566;38.058;2022-09-12T13:01:30;10.23;;;4.33;;
71125;SDS011;58785;55.566;38.058;2022-09-12T13:04:11;11.45;;;4.65;;
71125;SDS011;58785;55.566;38.058;2022-09-12T13:06:42;12.95;;;5.10;;
71125;SDS011;58785;55.566;38.058;2022-09-12T13:14:50;9.07;;;4.20;;
71125;SDS011;58785;55.566;38.058;2022-09-12T13:17:20;11.50;;;4.55;;
71125;SDS011;58785;55.566;38.058;2022-09-12T13:19:51;10.50;;;4.40;;
71125;SDS011;58785;55.566;38.058;2022-09-12T13:22:21;10.57;;;4.35;;
71125;SDS011;58785;55.566;38.058;2022-09-12T13:24:48;10.00;;;3.53;;
71125;SDS011;58785;55.566;38.058;2022-09-12T13:27:20;8.67;;;3.70;;
71125;SDS011;58785;55.566;38.058;2022-09-12T13:29:56;11.40;;;3.45;;
71125;SDS011;58785;55.566;38.058;2022-09-12T13:32:31;11.48;;;3.47;;
71125;SDS011;58785;55.566;38.058;2022-09-12T13:40:31;8.60;;;3.27;;
71125;SDS011;58785;55.566;38.058;2022-09-12T13:45:34;7.40;;;2.65;;
71125;SDS011;58785;55.566;38.058;2022-09-12T13:48:03;8.75;;;3.35;;
71125;SDS011;58785;55.566;38.058;2022-09-12T13:50:41;8.63;;;3.25;;
71125;SDS011;58785;55.566;38.058;2022-09-12T13:53:18;8.93;;;2.90;;
71125;SDS011;58785;55.566;38.058;2022-09-12T13:55:59;8.60;;;3.20;;
71125;SDS011;58785;55.566;38.058;2022-09-12T13:58:28;7.55;;;3.28;;
71125;SDS011;58785;55.566;38.058;2022-09-12T14:01:04;7.68;;;3.20;;
71125;SDS011;58785;55.566;38.058;2022-09-12T14:03:53;8.75;;;2.80;;
71125;SDS011;58785;55.566;38.058;2022-09-12T14:09:36;7.20;;;2.92;;
71125;SDS011;58785;55.566;38.058;2022-09-12T14:12:03;8.07;;;3.08;;
71125;SDS011;58785;55.566;38.058;2022-09-12T14:14:35;8.60;;;3.45;;
71125;SDS011;58785;55.566;38.058;2022-09-12T14:17:49;6.60;;;3.17;;
71125;SDS011;58785;55.566;38.058;2022-09-12T14:20:01;7.73;;;2.90;;
71125;SDS011;58785;55.566;38.058;2022-09-12T14:22:30;7.50;;;3.08;;
71125;SDS011;58785;55.566;38.058;2022-09-12T14:24:58;7.65;;;3.10;;
71125;SDS011;58785;55.566;38.058;2022-09-12T14:27:30;9.32;;;3.50;;
71125;SDS011;58785;55.566;38.058;2022-09-12T14:30:06;5.97;;;2.45;;
71125;SDS011;58785;55.566;38.058;2022-09-12T14:33:00;8.00;;;2.63;;
71125;SDS011;58785;55.566;38.058;2022-09-12T14:36:09;7.07;;;2.72;;
71125;SDS011;58785;55.566;38.058;2022-09-12T14:38:44;7.05;;;2.20;;
71125;SDS011;58785;55.566;38.058;2022-09-12T14:41:13;7.35;;;2.63;;
71125;SDS011;58785;55.566;38.058;2022-09-12T14:43:53;7.60;;;2.90;;
71125;SDS011;58785;55.566;38.058;2022-09-12T14:46:24;7.30;;;2.93;;
71125;SDS011;58785;55.566;38.058;2022-09-12T14:51:31;8.45;;;2.38;;
71125;SDS011;58785;55.566;38.058;2022-09-12T14:54:00;8.77;;;3.17;;
71125;SDS011;58785;55.566;38.058;2022-09-12T14:56:42;7.68;;;3.05;;
71125;SDS011;58785;55.566;38.058;2022-09-12T15:07:39;7.07;;;2.90;;
71125;SDS011;58785;55.566;38.058;2022-09-12T15:10:24;10.45;;;3.20;;
71125;SDS011;58785;55.566;38.058;2022-09-12T15:15:30;9.02;;;3.47;;
71125;SDS011;58785;55.566;38.058;2022-09-12T15:17:56;7.35;;;2.88;;
71125;SDS011;58785;55.566;38.058;2022-09-12T15:20:23;6.97;;;2.33;;
71125;SDS011;58785;55.566;38.058;2022-09-12T15:22:48;7.93;;;3.15;;
71125;SDS011;58785;55.566;38.058;2022-09-12T15:25:15;8.83;;;3.30;;
71125;SDS011;58785;55.566;38.058;2022-09-12T15:27:42;8.30;;;2.78;;
71125;SDS011;58785;55.566;38.058;2022-09-12T15:30:09;8.38;;;3.30;;
71125;SDS011;58785;55.566;38.058;2022-09-12T15:32:37;8.38;;;3.22;;
71125;SDS011;58785;55.566;38.058;2022-09-12T15:35:13;7.95;;;2.88;;
71125;SDS011;58785;55.566;38.058;2022-09-12T15:37:41;6.90;;;2.60;;
71125;SDS011;58785;55.566;38.058;2022-09-12T15:40:06;6.63;;;2.80;;
71125;SDS011;58785;55.566;38.058;2022-09-12T15:42:33;7.03;;;2.78;;
71125;SDS011;58785;55.566;38.058;2022-09-12T15:44:59;7.07;;;2.40;;
71125;SDS011;58785;55.566;38.058;2022-09-12T15:47:25;6.05;;;2.38;;
71125;SDS011;58785;55.566;38.058;2022-09-12T15:49:51;7.80;;;2.63;;
71125;SDS011;58785;55.566;38.058;2022-09-12T15:52:16;8.33;;;2.53;;
71125;SDS011;58785;55.566;38.058;2022-09-12T15:54:42;7.97;;;3.20;;
71125;SDS011;58785;55.566;38.058;2022-09-12T15:57:08;8.88;;;3.15;;
71125;SDS011;58785;55.566;38.058;2022-09-12T15:59:34;6.67;;;2.57;;
71125;SDS011;58785;55.566;38.058;2022-09-12T16:02:00;8.15;;;3.03;;
71125;SDS011;58785;55.566;38.058;2022-09-12T16:04:27;7.10;;;2.88;;
71125;SDS011;58785;55.566;38.058;2022-09-12T16:06:58;7.53;;;2.70;;
71125;SDS011;58785;55.566;38.058;2022-09-12T16:09:24;7.00;;;2.87;;
71125;SDS011;58785;55.566;38.058;2022-09-12T16:11:49;6.60;;;2.78;;
71125;SDS011;58785;55.566;38.058;2022-09-12T16:14:18;7.00;;;2.80;;
71125;SDS011;58785;55.566;38.058;2022-09-12T16:16:47;10.32;;;3.05;;
71125;SDS011;58785;55.566;38.058;2022-09-12T16:19:17;6.63;;;2.60;;
71125;SDS011;58785;55.566;38.058;2022-09-12T16:21:43;6.37;;;2.53;;
71125;SDS011;58785;55.566;38.058;2022-09-12T16:24:09;7.93;;;2.83;;
71125;SDS011;58785;55.566;38.058;2022-09-12T16:26:35;8.13;;;2.95;;
71125;SDS011;58785;55.566;38.058;2022-09-12T16:29:01;7.68;;;2.65;;
71125;SDS011;58785;55.566;38.058;2022-09-12T16:31:27;8.17;;;3.07;;
71125;SDS011;58785;55.566;38.058;2022-09-12T16:33:56;7.93;;;2.50;;
71125;SDS011;58785;55.566;38.058;2022-09-12T16:36:21;7.05;;;2.63;;
71125;SDS011;58785;55.566;38.058;2022-09-12T16:38:48;9.67;;;2.97;;
71125;SDS011;58785;55.566;38.058;2022-09-12T16:41:18;8.63;;;2.70;;
71125;SDS011;58785;55.566;38.058;2022-09-12T16:43:46;8.02;;;2.85;;
71125;SDS011;58785;55.566;38.058;2022-09-12T16:46:13;6.95;;;2.83;;
71125;SDS011;58785;55.566;38.058;2022-09-12T16:48:42;9.98;;;2.90;;
71125;SDS011;58785;55.566;38.058;2022-09-12T16:51:10;6.80;;;2.67;;
71125;SDS011;58785;55.566;38.058;2022-09-12T16:53:36;6.90;;;2.83;;
71125;SDS011;58785;55.566;38.058;2022-09-12T16:56:03;7.15;;;2.88;;
71125;SDS011;58785;55.566;38.058;2022-09-12T16:58:33;6.55;;;2.45;;
71125;SDS011;58785;55.566;38.058;2022-09-12T17:01:20;6.93;;;2.47;;
71125;SDS011;58785;55.566;38.058;2022-09-12T17:03:55;7.50;;;2.63;;
71125;SDS011;58785;55.566;38.058;2022-09-12T17:06:22;7.75;;;2.70;;
71125;SDS011;58785;55.566;38.058;2022-09-12T17:08:52;5.78;;;2.30;;
71125;SDS011;58785;55.566;38.058;2022-09-12T17:11:30;8.00;;;2.75;;
71125;SDS011;58785;55.566;38.058;2022-09-12T17:14:01;6.17;;;2.60;;
71125;SDS011;58785;55.566;38.058;2022-09-12T17:16:30;6.65;;;2.58;;
71125;SDS011;58785;55.566;38.058;2022-09-12T17:18:57;7.00;;;2.28;;
71125;SDS011;58785;55.566;38.058;2022-09-12T17:21:23;6.20;;;2.37;;
71125;SDS011;58785;55.566;38.058;2022-09-12T17:23:49;5.97;;;2.55;;
71125;SDS011;58785;55.566;38.058;2022-09-12T17:26:16;6.10;;;2.45;;
71125;SDS011;58785;55.566;38.058;2022-09-12T17:28:42;6.40;;;2.47;;
71125;SDS011;58785;55.566;38.058;2022-09-12T17:31:09;6.68;;;2.42;;
71125;SDS011;58785;55.566;38.058;2022-09-12T17:33:36;6.27;;;2.80;;